createdAt,value
2023-03-12T00:01:45.040Z,101267.00
2023-03-12T00:04:16.260Z,101282.75
2023-03-12T00:06:46.728Z,101279.59
2023-03-12T00:09:17.111Z,101277.63
2023-03-12T00:11:47.603Z,101281.91
2023-03-12T00:14:18.079Z,101290.22
2023-03-12T00:16:48.548Z,101295.41
2023-03-12T00:19:21.401Z,101296.75
2023-03-12T00:22:02.096Z,101300.31
2023-03-12T00:24:35.463Z,101304.53
2023-03-12T00:27:10.372Z,101305.84
2023-03-12T00:29:41.965Z,101308.94
2023-03-12T00:32:15.088Z,101310.84
2023-03-12T00:34:45.372Z,101313.31
2023-03-12T00:37:16.775Z,101311.69
2023-03-12T00:39:47.044Z,101303.41
2023-03-12T00:42:18.039Z,101315.75
2023-03-12T00:44:48.436Z,101323.72
2023-03-12T00:47:20.546Z,101325.69
2023-03-12T00:49:51.709Z,101332.00
2023-03-12T00:52:24.487Z,101327.94
2023-03-12T00:54:55.029Z,101329.25
2023-03-12T00:57:25.437Z,101331.22
2023-03-12T00:59:57.652Z,101332.34
2023-03-12T01:02:29.978Z,101331.50
2023-03-12T01:05:00.236Z,101332.66
2023-03-12T01:07:32.410Z,101332.00
2023-03-12T01:10:02.929Z,101338.06
2023-03-12T01:12:33.843Z,101353.22
2023-03-12T01:15:04.564Z,101354.75
2023-03-12T01:17:35.202Z,101347.59
2023-03-12T01:20:07.329Z,101348.91
2023-03-12T01:22:38.758Z,101350.84
2023-03-12T01:25:08.677Z,101356.25
2023-03-12T01:27:40.759Z,101359.34
2023-03-12T01:30:11.901Z,101355.75
2023-03-12T01:32:42.268Z,101358.00
2023-03-12T01:35:16.032Z,101355.75
2023-03-12T01:37:46.268Z,101348.59
2023-03-12T01:40:23.371Z,101355.22
2023-03-12T01:43:02.773Z,101361.28
2023-03-12T01:46:10.534Z,101363.22
2023-03-12T01:48:48.400Z,101361.59
2023-03-12T01:51:21.787Z,101368.75
2023-03-12T01:53:58.648Z,101366.78
2023-03-12T01:56:33.143Z,101370.69
2023-03-12T01:59:08.933Z,101365.16
2023-03-12T02:01:44.295Z,101376.53
2023-03-12T02:04:18.786Z,101366.78
2023-03-12T02:07:00.438Z,101373.66
2023-03-12T02:09:32.295Z,101381.63
2023-03-12T02:12:05.976Z,101383.78
2023-03-12T02:14:37.149Z,101377.13
2023-03-12T02:17:08.730Z,101383.97
2023-03-12T02:19:54.031Z,101381.22
2023-03-12T02:22:24.863Z,101385.28
2023-03-12T02:25:17.636Z,101392.34
2023-03-12T02:27:49.006Z,101393.25
2023-03-12T02:30:19.087Z,101390.50
2023-03-12T02:32:51.237Z,101392.97
2023-03-12T02:35:21.561Z,101401.25
2023-03-12T02:37:57.618Z,101398.78
2023-03-12T02:40:27.757Z,101398.72
2023-03-12T02:42:59.164Z,101401.53
2023-03-12T02:45:32.119Z,101400.94
2023-03-12T02:48:07.761Z,101389.38
2023-03-12T02:50:38.366Z,101394.50
2023-03-12T02:53:08.635Z,101398.78
2023-03-12T02:55:38.950Z,101397.47
2023-03-12T02:58:09.525Z,101398.16
2023-03-12T03:00:40.285Z,101391.94
2023-03-12T03:03:10.731Z,101390.31
2023-03-12T03:05:41.162Z,101383.66
2023-03-12T03:08:12.294Z,101384.91
2023-03-12T03:10:48.692Z,101386.53
2023-03-12T03:13:19.422Z,101393.19
2023-03-12T03:15:51.967Z,101387.34
2023-03-12T03:18:22.207Z,101390.31
2023-03-12T03:21:11.210Z,101389.69
2023-03-12T03:23:42.928Z,101392.13
2023-03-12T03:26:13.911Z,101387.13
2023-03-12T03:31:12.118Z,101379.63
2023-03-12T03:33:44.152Z,101387.63
2023-03-12T03:36:19.153Z,101378.50
2023-03-12T03:39:04.799Z,101371.25
2023-03-12T03:41:37.815Z,101377.91
2023-03-12T03:44:10.114Z,101367.84
2023-03-12T03:46:44.787Z,101370.09
2023-03-12T03:49:19.534Z,101364.88
2023-03-12T03:51:54.544Z,101368.97
2023-03-12T03:54:34.267Z,101363.44
2023-03-12T03:57:05.734Z,101354.03
2023-03-12T03:59:36.034Z,101359.25
2023-03-12T04:02:09.230Z,101350.16
2023-03-12T04:04:44.369Z,101347.25
2023-03-12T04:07:18.085Z,101335.56
2023-03-12T04:09:50.094Z,101337.19
2023-03-12T04:12:20.613Z,101328.78
2023-03-12T04:14:53.997Z,101331.41
2023-03-12T04:17:25.012Z,101319.72
2023-03-12T04:19:55.521Z,101317.47
2023-03-12T04:22:25.965Z,101308.84
2023-03-12T04:24:56.324Z,101305.16
2023-03-12T04:27:27.469Z,101295.47
2023-03-12T04:29:59.742Z,101289.56
2023-03-12T04:32:30.231Z,101285.13
2023-03-12T04:35:02.073Z,101281.28
2023-03-12T04:37:39.307Z,101276.00
2023-03-12T04:40:14.921Z,101273.53
2023-03-12T04:42:45.366Z,101267.22
2023-03-12T04:45:20.129Z,101262.16
2023-03-12T04:47:50.839Z,101254.50
2023-03-12T04:50:21.452Z,101258.94
2023-03-12T04:52:54.288Z,101249.22
2023-03-12T04:55:29.111Z,101256.66
2023-03-12T04:57:59.501Z,101250.81
2023-03-12T05:00:29.863Z,101238.94
2023-03-12T05:03:00.356Z,101225.97
2023-03-12T05:05:30.751Z,101230.19
2023-03-12T05:08:04.470Z,101219.59
2023-03-12T05:10:36.771Z,101219.13
2023-03-12T05:13:10.376Z,101211.16
2023-03-12T05:15:40.785Z,101213.06
2023-03-12T05:18:13.271Z,101221.69
2023-03-12T05:20:46.001Z,101212.41
2023-03-12T05:23:16.521Z,101211.56
2023-03-12T05:25:49.054Z,101208.94
2023-03-12T05:28:23.164Z,101195.59
2023-03-12T05:30:55.279Z,101190.91
2023-03-12T05:33:30.937Z,101191.91
2023-03-12T05:36:06.647Z,101182.28
2023-03-12T05:38:37.881Z,101179.00
2023-03-12T05:41:10.892Z,101175.94
2023-03-12T05:43:43.222Z,101172.84
2023-03-12T05:46:14.057Z,101167.31
2023-03-12T05:48:46.732Z,101161.28
2023-03-12T05:51:19.179Z,101158.88
2023-03-12T05:53:51.736Z,101155.00
2023-03-12T05:56:45.725Z,101147.03
2023-03-12T05:59:17.413Z,101143.00
2023-03-12T06:02:02.197Z,101143.16
2023-03-12T06:04:34.319Z,101130.78
2023-03-12T06:07:04.529Z,101135.22
2023-03-12T06:09:37.861Z,101128.03
2023-03-12T06:12:09.100Z,101120.69
2023-03-12T06:14:39.921Z,101114.34
2023-03-12T06:17:10.457Z,101122.00
2023-03-12T06:19:42.890Z,101111.25
2023-03-12T06:22:13.187Z,101107.84
2023-03-12T06:24:45.443Z,101103.59
2023-03-12T06:27:27.992Z,101104.41
2023-03-12T06:29:58.201Z,101102.94
2023-03-12T06:32:28.510Z,101097.88
2023-03-12T06:35:01.347Z,101095.91
2023-03-12T06:37:32.820Z,101089.56
2023-03-12T06:40:03.249Z,101078.84
2023-03-12T06:42:39.785Z,101087.81
2023-03-12T06:45:15.411Z,101078.84
2023-03-12T06:47:49.298Z,101076.38
2023-03-12T06:50:21.839Z,101070.06
2023-03-12T06:52:52.038Z,101061.09
2023-03-12T06:55:25.420Z,101068.44
2023-03-12T06:57:55.609Z,101060.47
2023-03-12T07:00:31.302Z,101060.59
2023-03-12T07:03:01.639Z,101048.06
2023-03-12T07:05:32.252Z,101035.38
2023-03-12T07:08:03.901Z,101040.91
2023-03-12T07:10:39.546Z,101021.72
2023-03-12T07:13:16.336Z,101016.97
2023-03-12T07:18:46.413Z,101012.72
2023-03-12T07:21:19.029Z,101012.56
2023-03-12T07:23:52.427Z,101008.50
2023-03-12T07:26:26.138Z,100997.94
2023-03-12T07:28:59.505Z,100983.91
2023-03-12T07:31:32.061Z,100986.84
2023-03-12T07:34:02.820Z,100980.97
2023-03-12T07:36:34.673Z,100980.00
2023-03-12T07:39:05.095Z,100976.91
2023-03-12T07:41:35.449Z,100978.19
2023-03-12T07:44:05.737Z,100973.16
2023-03-12T07:46:37.930Z,100963.06
2023-03-12T07:49:11.266Z,100955.88
2023-03-12T07:51:41.555Z,100958.81
2023-03-12T07:54:14.312Z,100950.84
2023-03-12T07:56:45.037Z,100943.00
2023-03-12T07:59:15.567Z,100942.19
2023-03-12T08:01:46.488Z,100943.47
2023-03-12T08:04:17.610Z,100943.00
2023-03-12T08:06:48.095Z,100934.69
2023-03-12T08:09:21.676Z,100929.81
2023-03-12T08:12:01.370Z,100925.06
2023-03-12T08:14:33.992Z,100929.81
2023-03-12T08:17:04.543Z,100929.59
2023-03-12T08:19:37.939Z,100917.25
2023-03-12T08:22:09.331Z,100921.16
2023-03-12T08:24:41.214Z,100921.16
2023-03-12T08:27:13.346Z,100907.13
2023-03-12T08:29:46.343Z,100912.50
2023-03-12T08:32:18.765Z,100907.13
2023-03-12T08:34:49.222Z,100897.69
2023-03-12T08:37:23.229Z,100904.53
2023-03-12T08:39:53.487Z,100901.28
2023-03-12T08:42:26.930Z,100902.44
2023-03-12T08:45:00.040Z,100901.28
2023-03-12T08:47:31.638Z,100901.91
2023-03-12T08:50:02.258Z,100894.78
2023-03-12T08:52:34.367Z,100893.84
2023-03-12T08:55:06.458Z,100889.75
2023-03-12T08:57:36.991Z,100896.78
2023-03-12T09:00:13.419Z,100899.88
2023-03-12T09:02:46.836Z,100900.69
2023-03-12T09:05:17.236Z,100901.16
2023-03-12T09:07:47.778Z,100888.31
2023-03-12T09:10:20.113Z,100899.53
2023-03-12T09:12:50.297Z,100896.94
2023-03-12T09:15:21.155Z,100896.47
2023-03-12T09:17:51.460Z,100894.38
2023-03-12T09:20:22.232Z,100886.88
2023-03-12T09:22:57.408Z,100896.31
2023-03-12T09:25:28.012Z,100896.31
2023-03-12T09:28:00.028Z,100897.78
2023-03-12T09:30:32.581Z,100896.66
2023-03-12T09:33:07.571Z,100906.09
2023-03-12T09:35:41.559Z,100903.13
2023-03-12T09:38:21.574Z,100907.53
2023-03-12T09:40:52.089Z,100908.34
2023-03-12T09:43:34.771Z,100906.41
2023-03-12T09:46:06.882Z,100906.41
2023-03-12T09:48:47.529Z,100902.00
2023-03-12T09:51:24.700Z,100909.16
2023-03-12T09:54:02.426Z,100907.22
2023-03-12T09:56:38.961Z,100903.47
2023-03-12T09:59:15.254Z,100900.22
2023-03-12T10:01:54.962Z,100906.25
2023-03-12T10:04:59.912Z,100907.53
2023-03-12T10:07:50.309Z,100912.13
2023-03-12T10:10:42.640Z,100913.06
2023-03-12T10:13:49.926Z,100906.72
2023-03-12T10:16:43.520Z,100906.72
2023-03-12T10:19:43.003Z,100919.28
2023-03-12T10:23:09.177Z,100910.97
2023-03-12T10:26:11.182Z,100912.63
2023-03-12T10:29:02.241Z,100919.28
2023-03-12T10:31:51.465Z,100919.59
2023-03-12T10:34:28.865Z,100921.56
2023-03-12T10:37:05.615Z,100932.00
2023-03-12T10:39:35.921Z,100930.03
2023-03-12T10:42:25.633Z,100942.38
2023-03-12T10:45:39.097Z,100938.66
2023-03-12T10:48:12.286Z,100943.72
2023-03-12T10:50:43.938Z,100947.78
2023-03-12T10:53:24.681Z,100946.13
2023-03-12T10:56:14.178Z,100956.22
2023-03-12T10:58:49.108Z,100953.78
2023-03-12T11:01:22.767Z,100953.63
2023-03-12T11:03:54.267Z,100960.78
2023-03-12T11:06:28.513Z,100965.66
2023-03-12T11:09:16.673Z,100968.13
2023-03-12T11:11:51.951Z,100979.34
2023-03-12T11:14:26.869Z,100978.34
2023-03-12T11:16:58.185Z,100984.06
2023-03-12T11:19:34.651Z,100979.84
2023-03-12T11:22:10.071Z,100981.63
2023-03-12T11:24:58.750Z,100991.88
2023-03-12T11:27:43.751Z,100998.22
2023-03-12T11:30:22.758Z,100998.72
2023-03-12T11:32:53.801Z,101004.59
2023-03-12T11:35:33.986Z,101007.34
2023-03-12T11:38:09.875Z,101017.91
2023-03-12T11:41:07.791Z,101024.94
2023-03-12T11:43:49.533Z,101017.28
2023-03-12T11:46:19.580Z,101019.88
2023-03-12T11:49:02.183Z,101026.22
2023-03-12T11:51:38.701Z,101021.66
2023-03-12T11:54:30.446Z,101016.47
2023-03-12T11:57:25.140Z,101037.75
2023-03-12T12:00:25.084Z,101024.56
2023-03-12T12:03:19.268Z,101032.72
2023-03-12T12:05:59.951Z,101030.09
2023-03-12T12:08:50.171Z,101040.53
2023-03-12T12:11:30.246Z,101038.09
2023-03-12T12:14:09.145Z,101034.84
2023-03-12T12:17:00.366Z,101051.91
2023-03-12T12:19:55.808Z,101052.72
2023-03-12T12:22:41.920Z,101050.78
2023-03-12T12:25:26.299Z,101063.78
2023-03-12T12:28:20.560Z,101051.72
2023-03-12T12:31:07.737Z,101070.78
2023-03-12T12:34:19.440Z,101070.06
2023-03-12T12:36:53.853Z,101072.84
2023-03-12T12:39:40.433Z,101078.84
2023-03-12T12:42:17.772Z,101086.00
2023-03-12T12:44:53.550Z,101087.63
2023-03-12T12:47:39.994Z,101094.31
2023-03-12T12:50:16.582Z,101101.44
2023-03-12T12:52:48.681Z,101099.59
2023-03-12T12:55:29.315Z,101107.78
2023-03-12T12:58:17.492Z,101100.47
2023-03-12T13:00:52.424Z,101115.56
2023-03-12T13:03:25.278Z,101123.06
2023-03-12T13:05:57.606Z,101114.78
2023-03-12T13:08:46.447Z,101111.50
2023-03-12T13:11:20.811Z,101114.59
2023-03-12T13:14:15.612Z,101121.09
2023-03-12T13:16:48.762Z,101134.28
2023-03-12T13:19:18.784Z,101136.50
2023-03-12T13:22:25.138Z,101140.41
2023-03-12T13:25:13.792Z,101136.81
2023-03-12T13:27:47.256Z,101129.97
2023-03-12T13:30:35.393Z,101136.84
2023-03-12T13:33:14.921Z,101134.75
2023-03-12T13:35:50.002Z,101139.34
2023-03-12T13:38:39.528Z,101133.31
2023-03-12T13:41:10.624Z,101134.97
2023-03-12T13:43:49.969Z,101138.22
2023-03-12T13:46:41.631Z,101142.00
2023-03-12T13:49:18.157Z,101150.09
2023-03-12T13:51:57.945Z,101144.72
2023-03-12T13:54:36.090Z,101154.16
2023-03-12T13:57:14.212Z,101152.38
2023-03-12T13:59:48.898Z,101160.97
2023-03-12T14:02:34.707Z,101166.50
2023-03-12T14:05:13.059Z,101188.97
2023-03-12T14:08:09.206Z,101194.50
2023-03-12T14:10:47.115Z,101201.78
2023-03-12T14:14:06.499Z,101207.94
2023-03-12T14:16:41.701Z,101211.19
2023-03-12T14:19:17.207Z,101213.00
2023-03-12T14:21:50.063Z,101208.56
2023-03-12T14:24:37.784Z,101220.13
2023-03-12T14:27:14.283Z,101207.31
2023-03-12T14:29:49.345Z,101218.19
2023-03-12T14:32:36.897Z,101216.22
2023-03-12T14:36:45.273Z,101209.94
2023-03-12T14:39:59.928Z,101211.38
2023-03-12T14:42:36.476Z,101212.88
2023-03-12T14:45:17.438Z,101225.88
2023-03-12T14:47:56.025Z,101228.47
2023-03-12T14:50:39.932Z,101230.59
2023-03-12T14:53:16.111Z,101242.47
2023-03-12T14:55:46.406Z,101241.66
2023-03-12T14:58:22.854Z,101241.66
2023-03-12T15:01:09.603Z,101248.66
2023-03-12T15:03:48.499Z,101242.28
2023-03-12T15:06:35.223Z,101250.47
2023-03-12T15:09:11.608Z,101244.09
2023-03-12T15:11:43.090Z,101239.41
2023-03-12T15:14:18.725Z,101244.31
2023-03-12T15:16:49.157Z,101247.38
2023-03-12T15:19:25.852Z,101249.63
2023-03-12T15:21:56.826Z,101246.06
2023-03-12T15:24:28.038Z,101250.59
2023-03-12T15:26:58.255Z,101258.38
2023-03-12T15:29:30.420Z,101247.31
2023-03-12T15:32:02.567Z,101246.53
2023-03-12T15:34:39.845Z,101250.91
2023-03-12T15:37:35.091Z,101259.50
2023-03-12T15:40:11.238Z,101252.34
2023-03-12T15:42:46.223Z,101267.34
2023-03-12T15:45:43.046Z,101271.41
2023-03-12T15:48:36.389Z,101282.75
2023-03-12T15:51:18.310Z,101281.63
2023-03-12T15:53:48.687Z,101279.19
2023-03-12T15:56:21.340Z,101281.63
2023-03-12T15:59:05.440Z,101289.13
2023-03-12T16:01:51.447Z,101283.94
2023-03-12T16:04:23.132Z,101291.38
2023-03-12T16:06:58.206Z,101280.00
2023-03-12T16:09:31.905Z,101287.16
2023-03-12T16:12:02.339Z,101287.00
2023-03-12T16:14:36.864Z,101276.75
2023-03-12T16:17:08.704Z,101265.19
2023-03-12T16:19:39.031Z,101259.66
2023-03-12T16:22:09.577Z,101263.56
2023-03-12T16:24:42.765Z,101262.44
2023-03-12T16:27:23.698Z,101263.06
2023-03-12T16:30:02.185Z,101259.66
2023-03-12T16:32:37.245Z,101277.06
2023-03-12T16:35:21.193Z,101277.38
2023-03-12T16:37:53.748Z,101266.94
2023-03-12T16:40:33.450Z,101270.22
2023-03-12T16:43:08.188Z,101282.09
2023-03-12T16:45:39.878Z,101302.78
2023-03-12T16:48:19.416Z,101310.84
2023-03-12T16:50:55.708Z,101301.75
2023-03-12T16:53:37.867Z,101284.34
2023-03-12T16:56:09.309Z,101308.09
2023-03-12T16:58:39.615Z,101319.66
2023-03-12T17:01:15.806Z,101317.50
2023-03-12T17:03:50.519Z,101321.44
2023-03-12T17:06:35.740Z,101318.69
2023-03-12T17:09:12.996Z,101332.78
2023-03-12T17:11:43.548Z,101325.34
2023-03-12T17:14:24.399Z,101314.28
2023-03-12T17:16:56.239Z,101315.19
2023-03-12T17:19:26.666Z,101308.53
2023-03-12T17:21:59.897Z,101297.47
2023-03-12T17:24:30.665Z,101295.84
2023-03-12T17:27:03.197Z,101303.00
2023-03-12T17:29:36.376Z,101304.13
2023-03-12T17:32:06.707Z,101297.81
2023-03-12T17:34:37.179Z,101295.03
2023-03-12T17:37:07.709Z,101282.84
2023-03-12T17:39:38.657Z,101269.16
2023-03-12T17:42:09.072Z,101272.09
2023-03-12T17:44:45.683Z,101288.06
2023-03-12T17:47:18.800Z,101295.03
2023-03-12T17:49:51.937Z,101301.38
2023-03-12T17:52:22.353Z,101286.56
2023-03-12T17:54:52.431Z,101260.06
2023-03-12T17:57:22.418Z,101258.59
2023-03-12T17:59:54.301Z,101253.91
2023-03-12T18:02:25.046Z,101272.09
2023-03-12T18:04:55.260Z,101272.09
2023-03-12T18:07:25.525Z,101258.59
2023-03-12T18:09:55.589Z,101259.44
2023-03-12T18:12:25.670Z,101260.22
2023-03-12T18:14:56.998Z,101257.78
2023-03-12T18:17:27.307Z,101262.50
2023-03-12T18:19:57.376Z,101266.88
2023-03-12T18:22:28.699Z,101264.13
2023-03-12T18:24:58.873Z,101255.66
2023-03-12T18:27:28.892Z,101245.41
2023-03-12T18:29:58.912Z,101223.09
2023-03-12T18:32:28.912Z,101212.56
2023-03-12T18:35:00.002Z,101212.06
2023-03-12T18:37:30.391Z,101220.00
2023-03-12T18:40:00.906Z,101238.56
2023-03-12T18:42:31.076Z,101231.06
2023-03-12T18:45:01.301Z,101214.19
2023-03-12T18:47:31.597Z,101202.97
2023-03-12T18:50:01.818Z,101202.97
2023-03-12T18:53:02.601Z,101201.31
2023-03-12T18:55:34.496Z,101206.84
2023-03-12T18:58:04.411Z,101212.69
2023-03-12T19:00:34.542Z,101210.41
2023-03-12T19:03:04.593Z,101200.50
2023-03-12T19:05:34.821Z,101196.44
2023-03-12T19:08:08.338Z,101201.13
2023-03-12T19:10:38.958Z,101194.78
2023-03-12T19:13:09.345Z,101192.31
2023-03-12T19:15:41.400Z,101193.16
2023-03-12T19:18:11.837Z,101190.72
2023-03-12T19:20:41.840Z,101186.31
2023-03-12T19:23:11.803Z,101190.72
2023-03-12T19:25:41.750Z,101185.19
2023-03-12T19:28:11.847Z,101196.25
2023-03-12T19:30:41.785Z,101200.13
2023-03-12T19:33:11.783Z,101205.34
2023-03-12T19:35:43.173Z,101207.31
2023-03-12T19:38:13.346Z,101211.66
2023-03-12T19:40:43.243Z,101216.06
2023-03-12T19:43:13.055Z,101206.13
2023-03-12T19:45:42.979Z,101205.34
2023-03-12T19:48:14.909Z,101218.97
2023-03-12T19:50:47.167Z,101224.50
2023-03-12T19:53:20.001Z,101217.97
2023-03-12T19:55:53.244Z,101202.50
2023-03-12T19:58:24.236Z,101199.75
2023-03-12T20:00:54.420Z,101193.41
2023-03-12T20:03:26.724Z,101193.69
2023-03-12T20:05:56.880Z,101194.03
2023-03-12T20:08:32.453Z,101189.28
2023-03-12T20:11:11.771Z,101180.03
2023-03-12T20:13:41.736Z,101177.56
2023-03-12T20:16:13.794Z,101172.53
2023-03-12T20:18:44.279Z,101166.22
2023-03-12T20:21:14.320Z,101170.72
2023-03-12T20:23:44.128Z,101169.38
2023-03-12T20:26:14.187Z,101173.78
2023-03-12T20:28:44.594Z,101173.59
2023-03-12T20:31:17.896Z,101188.25
2023-03-12T20:33:51.240Z,101183.00
2023-03-12T20:36:21.381Z,101202.97
2023-03-12T20:38:51.977Z,101212.91
2023-03-12T20:41:22.249Z,101209.00
2023-03-12T20:43:57.022Z,101210.78
2023-03-12T20:46:27.696Z,101207.38
2023-03-12T20:48:57.871Z,101208.50
2023-03-12T20:51:27.765Z,101194.69
2023-03-12T20:53:58.282Z,101191.13
2023-03-12T20:56:28.490Z,101189.66
2023-03-12T20:58:59.373Z,101184.66
2023-03-12T21:01:29.903Z,101189.16
2023-03-12T21:06:47.191Z,101204.44
2023-03-12T21:09:17.320Z,101204.09
2023-03-12T21:11:51.756Z,101218.41
2023-03-12T21:14:22.465Z,101217.09
2023-03-12T21:16:52.658Z,101221.84
2023-03-12T21:19:26.168Z,101231.25
2023-03-12T21:21:56.151Z,101219.97
2023-03-12T21:24:26.175Z,101201.41
2023-03-12T21:26:56.182Z,101202.03
2023-03-12T21:29:27.635Z,101210.31
2023-03-12T21:32:00.020Z,101237.75
2023-03-12T21:34:32.658Z,101238.34
2023-03-12T21:37:02.893Z,101235.59
2023-03-12T21:39:32.833Z,101234.78
2023-03-12T21:42:02.952Z,101230.06
2023-03-12T21:44:33.043Z,101240.22
2023-03-12T21:47:03.307Z,101237.94
2023-03-12T21:49:35.771Z,101241.66
2023-03-12T21:52:07.385Z,101224.47
2023-03-12T21:54:38.998Z,101214.03
2023-03-12T21:57:09.128Z,101218.44
2023-03-12T21:59:39.256Z,101226.31
2023-03-12T22:02:09.882Z,101234.28
2023-03-12T22:04:40.080Z,101254.91
2023-03-12T22:07:10.848Z,101268.53
2023-03-12T22:09:41.195Z,101286.94
2023-03-12T22:12:11.681Z,101284.88
2023-03-12T22:14:41.669Z,101284.78
2023-03-12T22:17:11.564Z,101276.81
2023-03-12T22:19:42.125Z,101273.34
2023-03-12T22:22:12.421Z,101271.78
2023-03-12T22:24:42.575Z,101279.28
2023-03-12T22:27:12.473Z,101280.56
2023-03-12T22:29:42.495Z,101286.72
2023-03-12T22:32:12.431Z,101285.03
2023-03-12T22:34:42.990Z,101285.03
2023-03-12T22:37:13.039Z,101291.69
2023-03-12T22:39:43.187Z,101287.53
2023-03-12T22:42:14.576Z,101290.66
2023-03-12T22:44:45.054Z,101298.31
2023-03-12T22:47:16.605Z,101296.75
2023-03-12T22:49:46.706Z,101306.66
2023-03-12T22:52:16.617Z,101311.81
2023-03-12T22:54:46.429Z,101318.56
2023-03-12T22:58:06.177Z,101325.97
2023-03-12T23:00:36.229Z,101329.72
2023-03-12T23:03:06.169Z,101326.69
2023-03-12T23:05:37.508Z,101334.97
2023-03-12T23:08:07.263Z,101340.16
2023-03-12T23:12:09.417Z,101358.16
2023-03-12T23:14:39.674Z,101355.19
2023-03-12T23:17:10.992Z,101351.31
2023-03-12T23:19:40.993Z,101346.84
2023-03-12T23:22:11.486Z,101344.00
2023-03-12T23:24:41.570Z,101337.38
2023-03-12T23:27:11.484Z,101345.88
2023-03-12T23:29:42.391Z,101348.63
2023-03-12T23:32:12.548Z,101348.25
2023-03-12T23:34:43.581Z,101348.00
2023-03-12T23:37:14.401Z,101340.56
2023-03-12T23:39:54.117Z,101341.69
2023-03-12T23:42:24.977Z,101341.69
2023-03-12T23:44:55.031Z,101354.69
2023-03-12T23:47:24.899Z,101357.13
2023-03-12T23:49:54.814Z,101364.88
2023-03-12T23:52:27.958Z,101376.94
2023-03-12T23:54:57.942Z,101379.91
2023-03-12T23:57:27.849Z,101376.13
2023-03-12T23:59:57.825Z,101376.13
